sensor_id;sensor_type;location;lat;lon;timestamp;pressure;altitude;pressure_sealevel;temperature;humidity
65659;BME280;60181;53.258;6.932;2022-07-22T00:00:03;102136.92;;;23.53;61.19
65659;BME280;60181;53.258;6.932;2022-07-22T00:04:29;102139.92;;;23.52;61.17
65659;BME280;60181;53.258;6.932;2022-07-22T00:08:57;102144.12;;;23.52;61.16
65659;BME280;60181;53.258;6.932;2022-07-22T00:13:25;102148.95;;;23.51;61.19
65659;BME280;60181;53.258;6.932;2022-07-22T00:17:53;102153.58;;;23.51;61.16
65659;BME280;60181;53.258;6.932;2022-07-22T00:22:21;102158.48;;;23.50;61.13
65659;BME280;60181;53.258;6.932;2022-07-22T00:26:49;102162.78;;;23.49;61.09
65659;BME280;60181;53.258;6.932;2022-07-22T00:31:17;102166.03;;;23.49;61.05
65659;BME280;60181;53.258;6.932;2022-07-22T00:35:45;102167.72;;;23.48;61.02
65659;BME280;60181;53.258;6.932;2022-07-22T00:40:13;102167.22;;;23.47;61.00
65659;BME280;60181;53.258;6.932;2022-07-22T00:44:41;102166.13;;;23.46;60.97
65659;BME280;60181;53.258;6.932;2022-07-22T00:49:09;102164.53;;;23.46;60.91
65659;BME280;60181;53.258;6.932;2022-07-22T00:53:37;102162.87;;;23.45;60.96
65659;BME280;60181;53.258;6.932;2022-07-22T00:58:05;102161.69;;;23.45;60.96
65659;BME280;60181;53.258;6.932;2022-07-22T01:02:33;102161.21;;;23.44;60.98
65659;BME280;60181;53.258;6.932;2022-07-22T01:07:01;102161.03;;;23.44;60.94
65659;BME280;60181;53.258;6.932;2022-07-22T01:11:29;102159.70;;;23.43;60.90
65659;BME280;60181;53.258;6.932;2022-07-22T01:15:57;102159.39;;;23.43;60.87
65659;BME280;60181;53.258;6.932;2022-07-22T01:20:25;102158.80;;;23.42;60.86
65659;BME280;60181;53.258;6.932;2022-07-22T01:24:53;102158.70;;;23.41;60.84
65659;BME280;60181;53.258;6.932;2022-07-22T01:29:21;102158.95;;;23.40;60.79
65659;BME280;60181;53.258;6.932;2022-07-22T01:33:49;102159.06;;;23.39;60.73
65659;BME280;60181;53.258;6.932;2022-07-22T01:38:17;102158.80;;;23.39;60.67
65659;BME280;60181;53.258;6.932;2022-07-22T01:42:45;102159.05;;;23.38;60.74
65659;BME280;60181;53.258;6.932;2022-07-22T01:47:13;102160.82;;;23.38;60.72
65659;BME280;60181;53.258;6.932;2022-07-22T01:51:41;102162.05;;;23.37;60.76
65659;BME280;60181;53.258;6.932;2022-07-22T01:56:09;102162.58;;;23.36;60.73
65659;BME280;60181;53.258;6.932;2022-07-22T02:00:37;102162.81;;;23.36;60.71
65659;BME280;60181;53.258;6.932;2022-07-22T02:05:05;102163.50;;;23.35;60.69
65659;BME280;60181;53.258;6.932;2022-07-22T02:09:33;102163.48;;;23.34;60.62
65659;BME280;60181;53.258;6.932;2022-07-22T02:14:01;102163.59;;;23.34;60.55
65659;BME280;60181;53.258;6.932;2022-07-22T02:18:29;102163.50;;;23.33;60.50
65659;BME280;60181;53.258;6.932;2022-07-22T03:30:03;102164.88;;;23.23;60.22
65659;BME280;60181;53.258;6.932;2022-07-22T03:34:30;102165.04;;;23.22;60.22
65659;BME280;60181;53.258;6.932;2022-07-22T03:38:58;102165.22;;;23.22;60.17
65659;BME280;60181;53.258;6.932;2022-07-22T03:43:26;102165.04;;;23.21;60.15
65659;BME280;60181;53.258;6.932;2022-07-22T03:47:54;102164.38;;;23.21;60.13
65659;BME280;60181;53.258;6.932;2022-07-22T03:52:22;102163.59;;;23.20;60.03
65659;BME280;60181;53.258;6.932;2022-07-22T03:56:50;102163.78;;;23.19;60.01
65659;BME280;60181;53.258;6.932;2022-07-22T04:01:18;102164.51;;;23.18;60.01
65659;BME280;60181;53.258;6.932;2022-07-22T04:05:46;102166.69;;;23.18;59.99
65659;BME280;60181;53.258;6.932;2022-07-22T04:10:14;102167.63;;;23.17;59.92
65659;BME280;60181;53.258;6.932;2022-07-22T04:14:42;102168.87;;;23.16;59.93
65659;BME280;60181;53.258;6.932;2022-07-22T04:19:11;102170.22;;;23.16;59.96
65659;BME280;60181;53.258;6.932;2022-07-22T04:23:38;102172.38;;;23.15;59.96
65659;BME280;60181;53.258;6.932;2022-07-22T04:28:06;102173.07;;;23.15;59.95
65659;BME280;60181;53.258;6.932;2022-07-22T04:32:34;102174.47;;;23.15;59.94
65659;BME280;60181;53.258;6.932;2022-07-22T04:37:02;102176.48;;;23.14;59.89
65659;BME280;60181;53.258;6.932;2022-07-22T04:41:30;102176.83;;;23.14;59.83
65659;BME280;60181;53.258;6.932;2022-07-22T04:45:58;102176.31;;;23.13;59.78
65659;BME280;60181;53.258;6.932;2022-07-22T04:50:26;102175.16;;;23.13;59.73
65659;BME280;60181;53.258;6.932;2022-07-22T04:54:54;102175.31;;;23.12;59.77
65659;BME280;60181;53.258;6.932;2022-07-22T04:59:22;102175.33;;;23.11;59.66
65659;BME280;60181;53.258;6.932;2022-07-22T05:03:50;102174.65;;;23.11;59.52
65659;BME280;60181;53.258;6.932;2022-07-22T05:08:18;102173.74;;;23.11;59.64
65659;BME280;60181;53.258;6.932;2022-07-22T05:12:46;102173.08;;;23.10;59.68
65659;BME280;60181;53.258;6.932;2022-07-22T05:17:14;102173.58;;;23.10;59.69
65659;BME280;60181;53.258;6.932;2022-07-22T05:21:42;102172.40;;;23.10;59.68
65659;BME280;60181;53.258;6.932;2022-07-22T05:26:10;102172.24;;;23.10;59.69
65659;BME280;60181;53.258;6.932;2022-07-22T05:30:38;102170.82;;;23.09;59.62
65659;BME280;60181;53.258;6.932;2022-07-22T05:35:07;102169.90;;;23.09;59.55
65659;BME280;60181;53.258;6.932;2022-07-22T05:39:34;102169.39;;;23.09;59.45
65659;BME280;60181;53.258;6.932;2022-07-22T05:44:03;102170.15;;;23.08;59.34
65659;BME280;60181;53.258;6.932;2022-07-22T05:48:30;102171.47;;;23.08;59.27
65659;BME280;60181;53.258;6.932;2022-07-22T05:52:58;102174.16;;;23.07;59.21
65659;BME280;60181;53.258;6.932;2022-07-22T05:57:26;102176.51;;;23.07;59.23
65659;BME280;60181;53.258;6.932;2022-07-22T06:01:54;102179.36;;;23.07;59.32
65659;BME280;60181;53.258;6.932;2022-07-22T06:06:22;102182.09;;;23.07;59.35
65659;BME280;60181;53.258;6.932;2022-07-22T06:10:50;102184.59;;;23.07;59.37
65659;BME280;60181;53.258;6.932;2022-07-22T06:15:18;102186.36;;;23.06;59.36
65659;BME280;60181;53.258;6.932;2022-07-22T06:19:46;102189.37;;;23.06;59.30
65659;BME280;60181;53.258;6.932;2022-07-22T06:24:14;102191.62;;;23.07;59.09
65659;BME280;60181;53.258;6.932;2022-07-22T06:28:42;102193.56;;;23.07;58.96
65659;BME280;60181;53.258;6.932;2022-07-22T06:33:10;102197.31;;;23.07;58.95
65659;BME280;60181;53.258;6.932;2022-07-22T06:37:38;102199.08;;;23.07;58.91
65659;BME280;60181;53.258;6.932;2022-07-22T06:42:06;102200.92;;;23.07;58.95
65659;BME280;60181;53.258;6.932;2022-07-22T06:46:34;102203.09;;;23.07;58.76
65659;BME280;60181;53.258;6.932;2022-07-22T06:51:02;102205.84;;;23.07;58.79
65659;BME280;60181;53.258;6.932;2022-07-22T06:55:30;102206.76;;;23.07;58.81
65659;BME280;60181;53.258;6.932;2022-07-22T06:59:58;102207.01;;;23.07;58.98
65659;BME280;60181;53.258;6.932;2022-07-22T07:04:26;102205.84;;;23.07;58.97
65659;BME280;60181;53.258;6.932;2022-07-22T07:08:54;102204.41;;;23.07;58.96
65659;BME280;60181;53.258;6.932;2022-07-22T07:13:22;102204.16;;;23.08;58.88
65659;BME280;60181;53.258;6.932;2022-07-22T07:17:51;102203.06;;;23.08;58.78
65659;BME280;60181;53.258;6.932;2022-07-22T07:22:18;102202.66;;;23.08;58.73
65659;BME280;60181;53.258;6.932;2022-07-22T07:26:46;102202.07;;;23.08;58.69
65659;BME280;60181;53.258;6.932;2022-07-22T07:31:14;102201.40;;;23.08;58.72
65659;BME280;60181;53.258;6.932;2022-07-22T07:35:42;102200.16;;;23.08;58.78
65659;BME280;60181;53.258;6.932;2022-07-22T07:40:10;102199.16;;;23.08;58.66
65659;BME280;60181;53.258;6.932;2022-07-22T07:44:38;102198.82;;;23.08;58.77
65659;BME280;60181;53.258;6.932;2022-07-22T07:49:06;102198.32;;;23.08;58.88
65659;BME280;60181;53.258;6.932;2022-07-22T07:53:34;102197.71;;;23.08;58.92
65659;BME280;60181;53.258;6.932;2022-07-22T07:58:02;102197.49;;;23.08;58.95
65659;BME280;60181;53.258;6.932;2022-07-22T08:02:30;102196.39;;;23.08;58.81
65659;BME280;60181;53.258;6.932;2022-07-22T08:06:58;102195.79;;;23.09;58.93
65659;BME280;60181;53.258;6.932;2022-07-22T08:11:26;102195.70;;;23.09;59.00
65659;BME280;60181;53.258;6.932;2022-07-22T08:15:54;102195.98;;;23.09;59.12
65659;BME280;60181;53.258;6.932;2022-07-22T08:20:23;102197.39;;;23.09;58.79
65659;BME280;60181;53.258;6.932;2022-07-22T08:24:50;102198.90;;;23.09;58.79
65659;BME280;60181;53.258;6.932;2022-07-22T08:29:18;102200.23;;;23.09;58.66
65659;BME280;60181;53.258;6.932;2022-07-22T08:33:46;102200.90;;;23.09;58.68
65659;BME280;60181;53.258;6.932;2022-07-22T08:38:14;102201.81;;;23.10;58.58
65659;BME280;60181;53.258;6.932;2022-07-22T08:42:43;102202.91;;;23.10;58.25
65659;BME280;60181;53.258;6.932;2022-07-22T08:47:10;102204.41;;;23.11;58.21
65659;BME280;60181;53.258;6.932;2022-07-22T08:51:38;102206.31;;;23.12;58.48
65659;BME280;60181;53.258;6.932;2022-07-22T08:56:06;102210.00;;;23.13;58.77
65659;BME280;60181;53.258;6.932;2022-07-22T09:00:34;102213.68;;;23.13;58.96
65659;BME280;60181;53.258;6.932;2022-07-22T09:05:03;102217.19;;;23.13;58.74
65659;BME280;60181;53.258;6.932;2022-07-22T09:09:33;102219.36;;;23.13;58.63
65659;BME280;60181;53.258;6.932;2022-07-22T09:13:59;102220.94;;;23.13;58.43
65659;BME280;60181;53.258;6.932;2022-07-22T09:18:26;102222.52;;;23.13;58.29
65659;BME280;60181;53.258;6.932;2022-07-22T09:22:54;102223.21;;;23.14;58.33
65659;BME280;60181;53.258;6.932;2022-07-22T09:27:25;102223.28;;;23.14;58.28
65659;BME280;60181;53.258;6.932;2022-07-22T09:31:50;102223.60;;;23.15;58.35
65659;BME280;60181;53.258;6.932;2022-07-22T09:36:18;102222.77;;;23.15;58.38
65659;BME280;60181;53.258;6.932;2022-07-22T09:40:47;102224.10;;;23.15;58.50
65659;BME280;60181;53.258;6.932;2022-07-22T09:45:14;102225.36;;;23.14;58.67
65659;BME280;60181;53.258;6.932;2022-07-22T09:49:42;102227.22;;;23.14;58.73
65659;BME280;60181;53.258;6.932;2022-07-22T09:54:10;102229.21;;;23.13;58.90
65659;BME280;60181;53.258;6.932;2022-07-22T09:58:38;102232.06;;;23.13;58.85
65659;BME280;60181;53.258;6.932;2022-07-22T10:03:07;102234.31;;;23.12;58.85
65659;BME280;60181;53.258;6.932;2022-07-22T10:07:34;102238.25;;;23.12;58.78
65659;BME280;60181;53.258;6.932;2022-07-22T10:12:02;102240.41;;;23.11;58.50
65659;BME280;60181;53.258;6.932;2022-07-22T10:16:30;102242.08;;;23.11;58.30
65659;BME280;60181;53.258;6.932;2022-07-22T10:21:04;102242.00;;;23.11;58.26
65659;BME280;60181;53.258;6.932;2022-07-22T10:25:27;102242.69;;;23.11;58.28
65659;BME280;60181;53.258;6.932;2022-07-22T10:29:54;102243.02;;;23.11;58.36
65659;BME280;60181;53.258;6.932;2022-07-22T10:34:22;102242.60;;;23.12;58.32
65659;BME280;60181;53.258;6.932;2022-07-22T10:39:01;102241.75;;;23.12;58.03
65659;BME280;60181;53.258;6.932;2022-07-22T10:43:22;102239.51;;;23.13;58.13
65659;BME280;60181;53.258;6.932;2022-07-22T10:47:55;102237.34;;;23.13;58.24
65659;BME280;60181;53.258;6.932;2022-07-22T10:52:14;102234.22;;;23.12;58.16
65659;BME280;60181;53.258;6.932;2022-07-22T10:56:42;102232.14;;;23.12;58.32
65659;BME280;60181;53.258;6.932;2022-07-22T11:01:11;102228.31;;;23.11;58.18
65659;BME280;60181;53.258;6.932;2022-07-22T11:05:38;102224.53;;;23.11;58.12
65659;BME280;60181;53.258;6.932;2022-07-22T11:10:13;102223.02;;;23.11;58.17
65659;BME280;60181;53.258;6.932;2022-07-22T11:14:34;102221.19;;;23.11;58.15
65659;BME280;60181;53.258;6.932;2022-07-22T11:19:03;102219.03;;;23.12;58.13
65659;BME280;60181;53.258;6.932;2022-07-22T11:23:30;102215.00;;;23.12;57.99
65659;BME280;60181;53.258;6.932;2022-07-22T11:27:58;102211.33;;;23.13;57.85
65659;BME280;60181;53.258;6.932;2022-07-22T11:32:26;102208.48;;;23.14;57.69
65659;BME280;60181;53.258;6.932;2022-07-22T11:36:54;102204.72;;;23.16;57.71
65659;BME280;60181;53.258;6.932;2022-07-22T11:41:22;102201.48;;;23.17;57.69
65659;BME280;60181;53.258;6.932;2022-07-22T11:45:56;102199.28;;;23.18;57.71
65659;BME280;60181;53.258;6.932;2022-07-22T11:50:28;102196.77;;;23.19;57.75
65659;BME280;60181;53.258;6.932;2022-07-22T11:54:46;102194.02;;;23.20;57.72
65659;BME280;60181;53.258;6.932;2022-07-22T11:59:14;102194.06;;;23.20;57.76
65659;BME280;60181;53.258;6.932;2022-07-22T12:03:46;102193.63;;;23.21;57.79
65659;BME280;60181;53.258;6.932;2022-07-22T12:08:10;102193.14;;;23.22;57.84
65659;BME280;60181;53.258;6.932;2022-07-22T12:12:38;102192.71;;;23.22;57.93
65659;BME280;60181;53.258;6.932;2022-07-22T12:17:07;102193.95;;;23.22;57.97
65659;BME280;60181;53.258;6.932;2022-07-22T12:21:35;102194.14;;;23.22;57.96
65659;BME280;60181;53.258;6.932;2022-07-22T12:26:02;102193.53;;;23.21;58.08
65659;BME280;60181;53.258;6.932;2022-07-22T12:30:30;102192.21;;;23.21;58.00
65659;BME280;60181;53.258;6.932;2022-07-22T12:34:59;102190.11;;;23.20;58.02
65659;BME280;60181;53.258;6.932;2022-07-22T12:39:26;102188.59;;;23.19;57.99
65659;BME280;60181;53.258;6.932;2022-07-22T12:43:54;102188.67;;;23.19;58.03
65659;BME280;60181;53.258;6.932;2022-07-22T12:48:27;102188.90;;;23.18;58.19
65659;BME280;60181;53.258;6.932;2022-07-22T12:52:51;102188.35;;;23.17;58.17
65659;BME280;60181;53.258;6.932;2022-07-22T12:57:18;102189.67;;;23.17;58.25
65659;BME280;60181;53.258;6.932;2022-07-22T13:01:46;102193.29;;;23.16;58.27
65659;BME280;60181;53.258;6.932;2022-07-22T13:06:14;102196.88;;;23.15;58.27
65659;BME280;60181;53.258;6.932;2022-07-22T13:10:42;102198.95;;;23.14;58.39
65659;BME280;60181;53.258;6.932;2022-07-22T13:15:10;102199.45;;;23.13;58.36
65659;BME280;60181;53.258;6.932;2022-07-22T13:19:38;102200.23;;;23.13;58.31
65659;BME280;60181;53.258;6.932;2022-07-22T13:24:06;102199.64;;;23.12;58.37
65659;BME280;60181;53.258;6.932;2022-07-22T13:28:34;102199.05;;;23.11;58.50
65659;BME280;60181;53.258;6.932;2022-07-22T13:33:02;102196.65;;;23.10;58.47
65659;BME280;60181;53.258;6.932;2022-07-22T13:37:30;102191.97;;;23.09;58.41
65659;BME280;60181;53.258;6.932;2022-07-22T13:41:58;102187.85;;;23.09;58.32
65659;BME280;60181;53.258;6.932;2022-07-22T13:46:26;102184.61;;;23.09;58.23
65659;BME280;60181;53.258;6.932;2022-07-22T13:50:54;102182.26;;;23.10;58.21
65659;BME280;60181;53.258;6.932;2022-07-22T13:55:22;102179.85;;;23.10;58.19
65659;BME280;60181;53.258;6.932;2022-07-22T13:59:50;102175.65;;;23.11;58.17
65659;BME280;60181;53.258;6.932;2022-07-22T14:04:18;102172.24;;;23.12;58.17
65659;BME280;60181;53.258;6.932;2022-07-22T14:08:46;102168.63;;;23.12;58.15
65659;BME280;60181;53.258;6.932;2022-07-22T14:13:14;102164.97;;;23.13;58.12
65659;BME280;60181;53.258;6.932;2022-07-22T14:17:42;102160.53;;;23.13;58.16
65659;BME280;60181;53.258;6.932;2022-07-22T14:22:10;102157.43;;;23.13;58.16
65659;BME280;60181;53.258;6.932;2022-07-22T14:26:38;102154.16;;;23.13;58.04
65659;BME280;60181;53.258;6.932;2022-07-22T14:31:06;102152.76;;;23.14;57.98
65659;BME280;60181;53.258;6.932;2022-07-22T14:35:34;102152.67;;;23.14;58.04
65659;BME280;60181;53.258;6.932;2022-07-22T14:40:02;102152.84;;;23.14;58.24
65659;BME280;60181;53.258;6.932;2022-07-22T14:44:30;102152.26;;;23.14;58.25
65659;BME280;60181;53.258;6.932;2022-07-22T14:48:58;102152.66;;;23.13;58.29
65659;BME280;60181;53.258;6.932;2022-07-22T14:53:26;102153.42;;;23.13;58.32
65659;BME280;60181;53.258;6.932;2022-07-22T14:57:54;102155.61;;;23.13;58.31
65659;BME280;60181;53.258;6.932;2022-07-22T15:02:22;102158.09;;;23.12;58.30
65659;BME280;60181;53.258;6.932;2022-07-22T15:06:50;102159.53;;;23.12;58.29
65659;BME280;60181;53.258;6.932;2022-07-22T15:11:18;102160.46;;;23.11;58.28
65659;BME280;60181;53.258;6.932;2022-07-22T15:15:46;102159.01;;;23.11;58.27
65659;BME280;60181;53.258;6.932;2022-07-22T15:20:13;102156.76;;;23.11;58.29
65659;BME280;60181;53.258;6.932;2022-07-22T15:24:41;102154.35;;;23.11;58.35
65659;BME280;60181;53.258;6.932;2022-07-22T15:29:09;102152.67;;;23.11;58.25
65659;BME280;60181;53.258;6.932;2022-07-22T15:33:37;102150.27;;;23.10;58.30
65659;BME280;60181;53.258;6.932;2022-07-22T15:38:05;102148.85;;;23.10;58.33
65659;BME280;60181;53.258;6.932;2022-07-22T15:42:33;102148.66;;;23.10;58.42
65659;BME280;60181;53.258;6.932;2022-07-22T15:47:01;102150.19;;;23.09;58.43
65659;BME280;60181;53.258;6.932;2022-07-22T15:51:30;102148.92;;;23.08;58.51
65659;BME280;60181;53.258;6.932;2022-07-22T15:55:58;102145.65;;;23.08;58.50
65659;BME280;60181;53.258;6.932;2022-07-22T16:00:26;102144.76;;;23.07;58.51
65659;BME280;60181;53.258;6.932;2022-07-22T16:04:53;102144.59;;;23.06;58.64
65659;BME280;60181;53.258;6.932;2022-07-22T16:09:21;102145.26;;;23.05;58.54
65659;BME280;60181;53.258;6.932;2022-07-22T16:13:49;102142.99;;;23.03;58.64
65659;BME280;60181;53.258;6.932;2022-07-22T16:18:17;102140.75;;;23.03;58.28
65659;BME280;60181;53.258;6.932;2022-07-22T16:22:45;102137.58;;;23.02;58.27
65659;BME280;60181;53.258;6.932;2022-07-22T16:27:13;102136.90;;;23.01;58.33
65659;BME280;60181;53.258;6.932;2022-07-22T16:31:41;102135.06;;;23.00;58.40
65659;BME280;60181;53.258;6.932;2022-07-22T16:36:09;102132.23;;;23.00;58.39
65659;BME280;60181;53.258;6.932;2022-07-22T16:40:37;102128.30;;;22.99;58.55
65659;BME280;60181;53.258;6.932;2022-07-22T16:45:06;102125.56;;;22.98;58.58
65659;BME280;60181;53.258;6.932;2022-07-22T16:49:34;102122.21;;;22.98;58.48
65659;BME280;60181;53.258;6.932;2022-07-22T16:54:03;102119.72;;;22.97;58.34
65659;BME280;60181;53.258;6.932;2022-07-22T16:58:29;102118.70;;;22.96;58.63
65659;BME280;60181;53.258;6.932;2022-07-22T17:02:57;102115.88;;;22.96;58.70
65659;BME280;60181;53.258;6.932;2022-07-22T17:07:25;102113.69;;;22.95;58.62
65659;BME280;60181;53.258;6.932;2022-07-22T17:11:53;102109.45;;;22.95;58.53
65659;BME280;60181;53.258;6.932;2022-07-22T17:16:21;102106.35;;;22.94;58.57
65659;BME280;60181;53.258;6.932;2022-07-22T17:20:49;102102.15;;;22.93;58.70
65659;BME280;60181;53.258;6.932;2022-07-22T17:25:18;102100.09;;;22.93;58.80
65659;BME280;60181;53.258;6.932;2022-07-22T17:29:45;102097.74;;;22.92;58.80
65659;BME280;60181;53.258;6.932;2022-07-22T17:34:13;102097.58;;;22.91;58.63
65659;BME280;60181;53.258;6.932;2022-07-22T17:38:41;102097.69;;;22.90;58.63
65659;BME280;60181;53.258;6.932;2022-07-22T17:43:09;102095.51;;;22.89;58.67
65659;BME280;60181;53.258;6.932;2022-07-22T17:47:37;102094.51;;;22.88;58.69
65659;BME280;60181;53.258;6.932;2022-07-22T17:52:05;102093.17;;;22.87;58.72
65659;BME280;60181;53.258;6.932;2022-07-22T17:56:33;102091.17;;;22.86;58.69
65659;BME280;60181;53.258;6.932;2022-07-22T18:01:01;102090.50;;;22.85;58.80
65659;BME280;60181;53.258;6.932;2022-07-22T18:05:30;102090.50;;;22.84;58.78
65659;BME280;60181;53.258;6.932;2022-07-22T18:09:57;102090.17;;;22.83;58.94
65659;BME280;60181;53.258;6.932;2022-07-22T18:14:25;102088.92;;;22.82;58.98
65659;BME280;60181;53.258;6.932;2022-07-22T18:18:53;102089.28;;;22.81;59.04
65659;BME280;60181;53.258;6.932;2022-07-22T18:23:21;102090.69;;;22.80;59.03
65659;BME280;60181;53.258;6.932;2022-07-22T18:27:49;102090.35;;;22.79;58.97
65659;BME280;60181;53.258;6.932;2022-07-22T18:32:17;102089.59;;;22.79;58.88
65659;BME280;60181;53.258;6.932;2022-07-22T18:36:45;102088.53;;;22.78;58.83
65659;BME280;60181;53.258;6.932;2022-07-22T18:41:13;102086.94;;;22.77;58.82
65659;BME280;60181;53.258;6.932;2022-07-22T18:45:41;102085.44;;;22.76;58.83
65659;BME280;60181;53.258;6.932;2022-07-22T18:50:09;102083.67;;;22.75;58.76
65659;BME280;60181;53.258;6.932;2022-07-22T18:54:37;102082.67;;;22.74;58.76
65659;BME280;60181;53.258;6.932;2022-07-22T18:59:06;102081.67;;;22.73;58.79
65659;BME280;60181;53.258;6.932;2022-07-22T19:03:33;102080.33;;;22.72;58.95
65659;BME280;60181;53.258;6.932;2022-07-22T19:08:01;102079.44;;;22.71;59.03
65659;BME280;60181;53.258;6.932;2022-07-22T19:12:29;102079.25;;;22.71;59.03
65659;BME280;60181;53.258;6.932;2022-07-22T19:16:57;102078.60;;;22.70;59.02
65659;BME280;60181;53.258;6.932;2022-07-22T19:21:25;102078.51;;;22.70;58.96
65659;BME280;60181;53.258;6.932;2022-07-22T19:25:53;102080.03;;;22.69;58.97
65659;BME280;60181;53.258;6.932;2022-07-22T19:30:21;102080.94;;;22.68;58.92
65659;BME280;60181;53.258;6.932;2022-07-22T19:34:49;102081.19;;;22.68;58.89
65659;BME280;60181;53.258;6.932;2022-07-22T19:39:17;102081.86;;;22.67;58.80
65659;BME280;60181;53.258;6.932;2022-07-22T19:43:45;102082.69;;;22.66;58.71
65659;BME280;60181;53.258;6.932;2022-07-22T19:48:13;102083.29;;;22.66;58.84
65659;BME280;60181;53.258;6.932;2022-07-22T19:52:41;102084.53;;;22.65;58.97
65659;BME280;60181;53.258;6.932;2022-07-22T19:57:09;102085.28;;;22.64;59.01
65659;BME280;60181;53.258;6.932;2022-07-22T20:01:37;102085.47;;;22.64;59.01
65659;BME280;60181;53.258;6.932;2022-07-22T20:06:05;102085.11;;;22.63;58.99
65659;BME280;60181;53.258;6.932;2022-07-22T20:10:33;102084.12;;;22.63;59.03
65659;BME280;60181;53.258;6.932;2022-07-22T20:15:01;102082.20;;;22.62;59.04
65659;BME280;60181;53.258;6.932;2022-07-22T20:19:29;102079.10;;;22.61;59.04
65659;BME280;60181;53.258;6.932;2022-07-22T20:23:57;102076.37;;;22.60;59.00
65659;BME280;60181;53.258;6.932;2022-07-22T20:28:25;102075.02;;;22.60;59.00
65659;BME280;60181;53.258;6.932;2022-07-22T20:32:53;102073.46;;;22.59;58.98
65659;BME280;60181;53.258;6.932;2022-07-22T20:37:21;102072.94;;;22.58;58.96
65659;BME280;60181;53.258;6.932;2022-07-22T20:41:49;102071.51;;;22.58;59.00
65659;BME280;60181;53.258;6.932;2022-07-22T20:46:17;102069.69;;;22.57;59.02
65659;BME280;60181;53.258;6.932;2022-07-22T20:50:45;102068.70;;;22.57;59.01
65659;BME280;60181;53.258;6.932;2022-07-22T20:55:13;102068.19;;;22.56;59.03
65659;BME280;60181;53.258;6.932;2022-07-22T20:59:41;102068.26;;;22.55;59.02
65659;BME280;60181;53.258;6.932;2022-07-22T21:04:09;102069.11;;;22.55;59.04
65659;BME280;60181;53.258;6.932;2022-07-22T21:08:37;102070.09;;;22.54;59.02
65659;BME280;60181;53.258;6.932;2022-07-22T21:13:05;102071.20;;;22.54;59.00
65659;BME280;60181;53.258;6.932;2022-07-22T21:17:33;102071.69;;;22.53;58.99
65659;BME280;60181;53.258;6.932;2022-07-22T21:22:01;102071.46;;;22.52;58.92
65659;BME280;60181;53.258;6.932;2022-07-22T21:26:29;102071.88;;;22.52;58.85
65659;BME280;60181;53.258;6.932;2022-07-22T21:30:57;102072.36;;;22.51;58.86
65659;BME280;60181;53.258;6.932;2022-07-22T21:35:25;102070.68;;;22.50;58.92
65659;BME280;60181;53.258;6.932;2022-07-22T21:39:53;102069.87;;;22.49;58.93
65659;BME280;60181;53.258;6.932;2022-07-22T21:44:21;102065.77;;;22.49;58.92
65659;BME280;60181;53.258;6.932;2022-07-22T21:48:49;102065.28;;;22.48;58.93
65659;BME280;60181;53.258;6.932;2022-07-22T21:53:17;102064.26;;;22.48;58.88
65659;BME280;60181;53.258;6.932;2022-07-22T21:57:45;102062.69;;;22.47;58.84
65659;BME280;60181;53.258;6.932;2022-07-22T22:02:13;102061.25;;;22.47;58.88
65659;BME280;60181;53.258;6.932;2022-07-22T22:06:41;102060.61;;;22.46;58.86
65659;BME280;60181;53.258;6.932;2022-07-22T22:11:09;102060.35;;;22.45;58.86
65659;BME280;60181;53.258;6.932;2022-07-22T22:15:37;102061.03;;;22.45;58.77
65659;BME280;60181;53.258;6.932;2022-07-22T22:20:05;102061.27;;;22.44;58.76
65659;BME280;60181;53.258;6.932;2022-07-22T22:24:33;102059.67;;;22.43;58.76
65659;BME280;60181;53.258;6.932;2022-07-22T22:29:01;102060.02;;;22.43;58.82
65659;BME280;60181;53.258;6.932;2022-07-22T22:33:29;102059.09;;;22.42;58.85
65659;BME280;60181;53.258;6.932;2022-07-22T22:37:57;102057.84;;;22.41;58.82
65659;BME280;60181;53.258;6.932;2022-07-22T22:42:25;102057.15;;;22.41;58.78
65659;BME280;60181;53.258;6.932;2022-07-22T22:46:53;102056.17;;;22.40;58.79
65659;BME280;60181;53.258;6.932;2022-07-22T22:51:21;102056.08;;;22.39;58.79
65659;BME280;60181;53.258;6.932;2022-07-22T22:55:49;102056.81;;;22.39;58.74
65659;BME280;60181;53.258;6.932;2022-07-22T23:00:17;102054.66;;;22.38;58.75
65659;BME280;60181;53.258;6.932;2022-07-22T23:04:45;102051.47;;;22.38;58.72
65659;BME280;60181;53.258;6.932;2022-07-22T23:09:13;102049.06;;;22.37;58.66
65659;BME280;60181;53.258;6.932;2022-07-22T23:13:41;102046.80;;;22.36;58.65
65659;BME280;60181;53.258;6.932;2022-07-22T23:18:09;102044.81;;;22.36;58.69
65659;BME280;60181;53.258;6.932;2022-07-22T23:22:37;102043.05;;;22.35;58.73
65659;BME280;60181;53.258;6.932;2022-07-22T23:27:05;102043.64;;;22.35;58.75
65659;BME280;60181;53.258;6.932;2022-07-22T23:31:33;102045.65;;;22.34;58.74
65659;BME280;60181;53.258;6.932;2022-07-22T23:36:01;102046.56;;;22.34;58.70
65659;BME280;60181;53.258;6.932;2022-07-22T23:40:29;102047.55;;;22.33;58.70
65659;BME280;60181;53.258;6.932;2022-07-22T23:44:57;102048.66;;;22.32;58.65
65659;BME280;60181;53.258;6.932;2022-07-22T23:49:25;102049.39;;;22.32;58.67
65659;BME280;60181;53.258;6.932;2022-07-22T23:53:53;102049.98;;;22.32;58.68
65659;BME280;60181;53.258;6.932;2022-07-22T23:58:21;102049.66;;;22.31;58.67
